• Join FlightAware (Why Join?)
  • Login
  • US Flag 
Gobble Gobble! 
11:17PM EST


 

Airport Tracker/Info


-or-


 

Live Flight TrackerFlight Track Log ✈ N425EM ✈ 22-Jun-2013 ✈ KASH - KHGR

Flight Track Log - Related Links

Times and Time Zones

All times are in EDT time to prevent confusion due to time zone crossing. See the N425EM flight status page for this flight to view local times or setup timezone preferences in your user account.

Time Position Orientation Groundspeed Altitude Reporting Facility
EDT Latitude Longitude Course Direction KTS MPH feet Rate Location/Type
08:44AM 42.7833 -71.5333 312° West 126 145 800  Level KA90
08:45AM 42.8167 -71.5833 312° West 146 168 2,500 1,620 Climbing KA90
08:46AM 42.8167 -71.6333 270° West 140 161 4,300 1,500 Climbing KA90
08:47AM 42.8167 -71.6833 270° West 151 174 5,600 1,320 Climbing KA90
08:49AM 42.8069 -71.7722 262° West 160 184 7,500 1,440 Climbing Boston Center
08:50AM 42.8053 -71.8344 268° West 160 184 9,100 1,440 Climbing Boston Center
08:51AM 42.8033 -71.8911 267° West 165 190 10,400 1,260 Climbing Boston Center
08:52AM 42.8017 -71.9619 268° West 171 197 11,700 840 Climbing Boston Center
08:53AM 42.8019 -72.0269 270° West 184 212 12,100 180 Climbing Boston Center
08:54AM 42.8000 -72.1147 268° West 206 237 12,100  Level Boston Center
08:55AM 42.7981 -72.1856 268° West 217 250 12,100 420 Level Boston Center
08:56AM 42.7961 -72.2619 268° West 204 235 13,000 780 Climbing Boston Center
08:57AM 42.7922 -72.3297 266° West 193 222 13,700 900 Climbing Boston Center
08:58AM 42.7900 -72.3947 267° West 187 215 14,900 1,200 Climbing Boston Center
08:59AM 42.7922 -72.4569 273° West 175 201 16,200 1,200 Climbing Boston Center
09:00AM 42.7900 -72.5192 267° West 175 201 17,300 900 Climbing Boston Center
09:01AM 42.7881 -72.5814 268° West 175 201 18,000 780 Climbing Boston Center
09:02AM 42.7858 -72.6467 267° West 175 201 18,900 720 Climbing Boston Center
09:03AM 42.7836 -72.7003 267° West 169 194 19,500 540 Climbing Boston Center
09:04AM 42.7833 -72.7625 270° West 169 194 20,000 240 Climbing Boston Center
09:05AM 42.7811 -72.8361 268° West 182 209 20,000  Level Boston Center
09:06AM 42.7808 -72.9181 270° West 199 229 20,000  Level Boston Center
09:07AM 42.7761 -73.0058 266° West 204 235 20,000  Level Boston Center
09:08AM 42.7736 -73.0794 267° West 211 243 20,000  Level Boston Center
09:09AM 42.7567 -73.1528 253° West 211 243 20,000  Level Boston Center
09:10AM 42.7228 -73.2369 241° Southwest 211 243 20,000  Level Boston Center
09:11AM 42.6972 -73.3044 243° Southwest 211 243 20,000  Level Boston Center
09:12AM 42.6697 -73.3719 241° Southwest 211 243 20,000  Level Boston Center
09:13AM 42.6439 -73.4419 243° Southwest 211 243 20,000  Level Boston Center
09:14AM 42.6164 -73.5094 241° Southwest 206 237 20,000  Level Boston Center
09:15AM 42.5906 -73.5794 243° Southwest 206 237 20,000  Level Boston Center
09:16AM 42.5628 -73.6439 240° Southwest 206 237 20,000  Level Boston Center
09:17AM 42.5369 -73.7164 244° Southwest 206 237 20,000  Level Boston Center
09:18AM 42.5114 -73.7836 243° Southwest 206 237 20,000  Level Boston Center
09:19AM 42.4833 -73.8533 241° Southwest 206 237 20,000  Level Boston Center
09:20AM 42.4553 -73.9203 240° Southwest 206 237 20,000  Level Boston Center
09:21AM 42.4272 -73.9900 241° Southwest 206 237 20,000  Level Boston Center
09:22AM 42.4014 -74.0567 242° Southwest 206 237 20,000  Level Boston Center
09:23AM 42.3733 -74.1264 241° Southwest 206 237 20,000 -60 Level Boston Center
09:24AM 42.3536 -74.1792 243° Southwest 206 237 19,900 -60 Descending Boston Center
09:25AM 42.3211 -74.2653 243° Southwest 206 237 19,900  Level Boston Center
09:26AM 42.2931 -74.3319 240° Southwest 211 243 20,000  Climbing Boston Center
09:27AM 42.2647 -74.4039 242° Southwest 211 243 20,000 -60 Level Boston Center
09:28AM 42.2386 -74.4647 240° Southwest 211 243 19,900 -60 Descending Boston Center
09:29AM 42.2122 -74.5311 242° Southwest 211 243 19,900  Level Boston Center
09:30AM 42.1861 -74.5975 242° Southwest 211 243 19,900  Level Boston Center
09:31AM 42.1575 -74.6667 241° Southwest 211 243 19,900  Level Boston Center
09:32AM 42.1314 -74.7331 242° Southwest 206 237 19,900  Level Boston Center
09:33AM 42.1047 -74.8047 243° Southwest 206 237 19,900  Level Boston Center
09:34AM 42.0764 -74.8708 240° Southwest 206 237 19,900  Level Boston Center
09:36AM 42.0139 -75.0194 241° Southwest 209 241 19,900  Level New York Center
09:37AM 41.9842 -75.0900 240° Southwest 209 241 19,900  Level New York Center
09:38AM 41.9528 -75.1578 238° Southwest 214 246 19,900  Level New York Center
09:39AM 41.9050 -75.2103 219° Southwest 224 258 19,900  Level New York Center
09:40AM 41.8592 -75.2628 220° Southwest 224 258 19,900  Level New York Center
09:41AM 41.8133 -75.3211 223° Southwest 224 258 19,900  Level New York Center
09:42AM 41.7697 -75.3708 220° Southwest 224 258 19,900 -60 Level New York Center
09:43AM 41.7239 -75.4261 222° Southwest 224 258 19,800 -540 Descending New York Center
09:44AM 41.6692 -75.4917 222° Southwest 224 258 18,900 -780 Descending New York Center
09:45AM 41.6208 -75.5519 223° Southwest 241 277 18,300 -600 Descending New York Center
09:46AM 41.5772 -75.6044 222° Southwest 241 277 17,800 -360 Descending New York Center
09:47AM 41.5228 -75.6642 219° Southwest 246 283 17,600 -300 Descending New York Center
09:48AM 41.4744 -75.7242 223° Southwest 246 283 17,200 -480 Descending New York Center
09:49AM 41.4239 -75.7842 222° Southwest 246 283 16,700 -540 Descending New York Center
09:50AM 41.3736 -75.8414 221° Southwest 246 283 16,200 -360 Descending New York Center
09:51AM 41.3233 -75.8983 220° Southwest 246 283 16,000 -120 Descending New York Center
09:52AM 41.2750 -75.9525 220° Southwest 246 283 16,000  Level New York Center
09:53AM 41.2244 -76.0122 222° Southwest 238 274 16,000  Level New York Center
09:54AM 41.1783 -76.0664 221° Southwest 225 259 16,000  Level New York Center
09:55AM 41.1344 -76.1181 222° Southwest 225 259 16,000  Level New York Center
09:56AM 41.0925 -76.1672 221° Southwest 225 259 16,000  Level New York Center
09:57AM 41.0464 -76.2214 222° Southwest 225 259 16,000  Level New York Center
09:58AM 40.9956 -76.2806 221° Southwest 220 253 16,000  Level New York Center
09:59AM 40.9472 -76.3369 221° Southwest 226 260 16,000  Level New York Center
10:00AM 40.9008 -76.3908 221° Southwest 226 260 16,000  Level New York Center
10:01AM 40.8589 -76.4394 221° Southwest 226 260 16,000  Level New York Center
10:02AM 40.8128 -76.4906 220° Southwest 226 260 16,000  Level New York Center
10:03AM 40.7600 -76.5492 220° Southwest 226 260 16,000  Level New York Center
10:04AM 40.7114 -76.6025 220° Southwest 226 260 16,000  Level New York Center
10:05AM 40.6669 -76.6589 224° Southwest 226 260 16,000  Level New York Center
10:06AM 40.6228 -76.7100 221° Southwest 226 260 16,000  Level New York Center
10:07AM 40.5739 -76.7686 222° Southwest 221 254 16,000  Level New York Center
10:08AM 40.5253 -76.8217 220° Southwest 221 254 16,000  Level New York Center
10:09AM 40.4856 -76.8672 221° Southwest 221 254 16,000  Level New York Center
10:10AM 40.4325 -76.9253 220° Southwest 221 254 16,000  Level New York Center
10:11AM 40.3903 -76.9733 221° Southwest 221 254 16,000  Level New York Center
10:12AM 40.3394 -77.0314 221° Southwest 221 254 16,000 -540 Level New York Center
10:13AM 40.2903 -77.0897 222° Southwest 226 260 15,000 -5,460 Descending New York Center
10:14AM 40.2453 -77.1536 227° Southwest 238 274 5,000 -900 Descending New York Center
10:15AM 40.1981 -77.2172 226° Southwest 251 289 13,200 3,660 Climbing New York Center
10:16AM 40.1531 -77.2781 226° Southwest 246 283 12,300 -1,080 Descending New York Center
10:17AM 40.1081 -77.3364 225° Southwest 241 277 11,100 -1,140 Descending New York Center
10:18AM 40.0633 -77.3892 222° Southwest 236 272 10,000 -1,200 Descending New York Center
10:19AM 40.0147 -77.4389 218° Southwest 224 258 8,800 -1,260 Descending New York Center
10:20AM 39.9661 -77.4858 217° Southwest 224 258 7,600 -1,260 Descending New York Center
10:21AM 39.9197 -77.5328 218° Southwest 218 251 6,400 -1,260 Descending New York Center
10:22AM 39.8678 -77.5656 206° Southwest 213 245 5,100 -1,500 Descending New York Center
10:23AM 39.8103 -77.5844 194° South 207 238 3,500 -1,320 Descending New York Center
10:24AM 39.7556 -77.5953 189° South 212 244 2,500 -660 Descending New York Center
10:25AM 39.7231 -77.6164 207° Southwest 174 200 2,200 -600 Descending New York Center
10:26AM 39.7161 -77.6642 259° West 132 152 1,400 -420 Descending New York Center
10:27AM 39.6814 -77.6853 205° Southwest 132 152 1,400  Level New York Center